sensor_id;sensor_type;location;lat;lon;timestamp;temperature;humidity
37844;DHT22;23930;57.632;18.292;2022-08-07T00:01:16;16.80;99.90
37844;DHT22;23930;57.632;18.292;2022-08-07T00:04:04;16.80;99.90
37844;DHT22;23930;57.632;18.292;2022-08-07T00:06:35;16.80;99.90
37844;DHT22;23930;57.632;18.292;2022-08-07T00:09:11;16.80;99.90
37844;DHT22;23930;57.632;18.292;2022-08-07T00:11:46;16.70;99.90
37844;DHT22;23930;57.632;18.292;2022-08-07T00:14:25;16.70;99.90
37844;DHT22;23930;57.632;18.292;2022-08-07T00:16:58;16.70;99.90
37844;DHT22;23930;57.632;18.292;2022-08-07T00:19:25;16.60;99.90
37844;DHT22;23930;57.632;18.292;2022-08-07T00:22:14;16.60;99.90
37844;DHT22;23930;57.632;18.292;2022-08-07T00:25:06;16.60;99.90
37844;DHT22;23930;57.632;18.292;2022-08-07T00:27:36;16.60;99.90
37844;DHT22;23930;57.632;18.292;2022-08-07T00:30:19;16.50;99.90
37844;DHT22;23930;57.632;18.292;2022-08-07T00:32:58;16.50;99.90
37844;DHT22;23930;57.632;18.292;2022-08-07T00:35:26;16.50;99.90
37844;DHT22;23930;57.632;18.292;2022-08-07T00:37:59;16.40;99.90
37844;DHT22;23930;57.632;18.292;2022-08-07T00:40:26;16.40;99.90
37844;DHT22;23930;57.632;18.292;2022-08-07T00:43:10;16.40;99.90
37844;DHT22;23930;57.632;18.292;2022-08-07T00:45:58;16.30;99.90
37844;DHT22;23930;57.632;18.292;2022-08-07T00:48:27;16.30;99.90
37844;DHT22;23930;57.632;18.292;2022-08-07T00:50:59;16.30;99.90
37844;DHT22;23930;57.632;18.292;2022-08-07T00:53:26;16.30;99.90
37844;DHT22;23930;57.632;18.292;2022-08-07T00:56:13;16.20;99.90
37844;DHT22;23930;57.632;18.292;2022-08-07T00:58:42;16.20;99.90
37844;DHT22;23930;57.632;18.292;2022-08-07T01:01:14;16.20;99.90
37844;DHT22;23930;57.632;18.292;2022-08-07T01:03:41;16.20;99.90
37844;DHT22;23930;57.632;18.292;2022-08-07T01:06:29;16.20;99.90
37844;DHT22;23930;57.632;18.292;2022-08-07T01:08:58;16.20;99.90
37844;DHT22;23930;57.632;18.292;2022-08-07T01:11:31;16.20;99.90
37844;DHT22;23930;57.632;18.292;2022-08-07T01:14:22;16.10;99.90
37844;DHT22;23930;57.632;18.292;2022-08-07T01:16:55;16.10;99.90
37844;DHT22;23930;57.632;18.292;2022-08-07T01:19:23;16.10;99.90
37844;DHT22;23930;57.632;18.292;2022-08-07T01:21:53;16.00;99.90
37844;DHT22;23930;57.632;18.292;2022-08-07T01:24:25;16.00;99.90
37844;DHT22;23930;57.632;18.292;2022-08-07T01:26:56;16.00;99.90
37844;DHT22;23930;57.632;18.292;2022-08-07T01:29:26;16.00;99.90
37844;DHT22;23930;57.632;18.292;2022-08-07T01:32:01;16.00;99.90
37844;DHT22;23930;57.632;18.292;2022-08-07T01:34:32;16.00;99.90
37844;DHT22;23930;57.632;18.292;2022-08-07T01:37:07;15.90;99.90
37844;DHT22;23930;57.632;18.292;2022-08-07T01:39:36;15.90;99.90
37844;DHT22;23930;57.632;18.292;2022-08-07T01:42:33;15.90;99.90
37844;DHT22;23930;57.632;18.292;2022-08-07T01:45:07;15.80;99.90
37844;DHT22;23930;57.632;18.292;2022-08-07T01:47:44;15.80;99.90
37844;DHT22;23930;57.632;18.292;2022-08-07T01:50:36;15.80;99.90
37844;DHT22;23930;57.632;18.292;2022-08-07T01:53:09;15.80;99.90
37844;DHT22;23930;57.632;18.292;2022-08-07T01:55:56;15.80;99.90
37844;DHT22;23930;57.632;18.292;2022-08-07T01:58:29;15.80;99.90
37844;DHT22;23930;57.632;18.292;2022-08-07T02:01:03;15.70;99.90
37844;DHT22;23930;57.632;18.292;2022-08-07T02:03:55;15.70;99.90
37844;DHT22;23930;57.632;18.292;2022-08-07T02:06:26;15.70;99.90
37844;DHT22;23930;57.632;18.292;2022-08-07T02:09:03;15.70;99.90
37844;DHT22;23930;57.632;18.292;2022-08-07T02:11:35;15.60;99.90
37844;DHT22;23930;57.632;18.292;2022-08-07T02:14:25;15.60;99.90
37844;DHT22;23930;57.632;18.292;2022-08-07T02:17:03;15.50;99.90
37844;DHT22;23930;57.632;18.292;2022-08-07T02:19:33;15.50;99.90
37844;DHT22;23930;57.632;18.292;2022-08-07T02:22:21;15.50;99.90
37844;DHT22;23930;57.632;18.292;2022-08-07T02:24:53;15.50;99.90
37844;DHT22;23930;57.632;18.292;2022-08-07T02:27:23;15.40;99.90
37844;DHT22;23930;57.632;18.292;2022-08-07T02:29:52;15.30;99.90
37844;DHT22;23930;57.632;18.292;2022-08-07T02:32:26;15.30;99.90
37844;DHT22;23930;57.632;18.292;2022-08-07T02:34:56;15.30;99.90
37844;DHT22;23930;57.632;18.292;2022-08-07T02:37:27;15.30;99.90
37844;DHT22;23930;57.632;18.292;2022-08-07T02:40:05;15.30;99.90
37844;DHT22;23930;57.632;18.292;2022-08-07T02:42:57;15.30;99.90
37844;DHT22;23930;57.632;18.292;2022-08-07T02:45:26;15.30;99.90
37844;DHT22;23930;57.632;18.292;2022-08-07T02:48:13;15.30;99.90
37844;DHT22;23930;57.632;18.292;2022-08-07T02:50:43;15.30;99.90
37844;DHT22;23930;57.632;18.292;2022-08-07T02:53:37;15.30;99.90
37844;DHT22;23930;57.632;18.292;2022-08-07T02:56:12;15.30;99.90
37844;DHT22;23930;57.632;18.292;2022-08-07T02:58:51;15.20;99.90
37844;DHT22;23930;57.632;18.292;2022-08-07T03:01:23;15.20;99.90
37844;DHT22;23930;57.632;18.292;2022-08-07T03:04:06;15.20;99.90
37844;DHT22;23930;57.632;18.292;2022-08-07T03:06:45;15.20;99.90
37844;DHT22;23930;57.632;18.292;2022-08-07T03:09:15;15.20;99.90
37844;DHT22;23930;57.632;18.292;2022-08-07T03:12:06;15.20;99.90
37844;DHT22;23930;57.632;18.292;2022-08-07T03:14:50;15.10;99.90
37844;DHT22;23930;57.632;18.292;2022-08-07T03:17:19;15.10;99.90
37844;DHT22;23930;57.632;18.292;2022-08-07T03:19:53;15.10;99.90
37844;DHT22;23930;57.632;18.292;2022-08-07T03:22:24;15.10;99.90
37844;DHT22;23930;57.632;18.292;2022-08-07T03:24:58;15.00;99.90
37844;DHT22;23930;57.632;18.292;2022-08-07T03:27:29;15.00;99.90
37844;DHT22;23930;57.632;18.292;2022-08-07T03:30:16;15.00;99.90
37844;DHT22;23930;57.632;18.292;2022-08-07T03:32:48;15.00;99.90
37844;DHT22;23930;57.632;18.292;2022-08-07T03:35:27;15.00;99.90
37844;DHT22;23930;57.632;18.292;2022-08-07T03:38:15;15.00;99.90
37844;DHT22;23930;57.632;18.292;2022-08-07T03:40:49;15.00;99.90
37844;DHT22;23930;57.632;18.292;2022-08-07T03:43:25;15.00;99.90
37844;DHT22;23930;57.632;18.292;2022-08-07T03:46:01;15.00;99.90
37844;DHT22;23930;57.632;18.292;2022-08-07T03:48:31;15.00;99.90
37844;DHT22;23930;57.632;18.292;2022-08-07T03:51:12;15.00;99.90
37844;DHT22;23930;57.632;18.292;2022-08-07T03:53:40;15.10;99.90
37844;DHT22;23930;57.632;18.292;2022-08-07T03:56:30;15.00;99.90
37844;DHT22;23930;57.632;18.292;2022-08-07T03:59:02;15.00;99.90
37844;DHT22;23930;57.632;18.292;2022-08-07T04:01:43;15.10;99.90
37844;DHT22;23930;57.632;18.292;2022-08-07T04:04:17;15.10;99.90
37844;DHT22;23930;57.632;18.292;2022-08-07T04:06:51;15.00;99.90
37844;DHT22;23930;57.632;18.292;2022-08-07T04:09:21;15.10;99.90
37844;DHT22;23930;57.632;18.292;2022-08-07T04:11:55;15.10;99.90
37844;DHT22;23930;57.632;18.292;2022-08-07T04:14:44;15.10;99.90
37844;DHT22;23930;57.632;18.292;2022-08-07T04:17:15;15.10;99.90
37844;DHT22;23930;57.632;18.292;2022-08-07T04:19:49;15.10;99.90
37844;DHT22;23930;57.632;18.292;2022-08-07T04:22:22;15.10;99.90
37844;DHT22;23930;57.632;18.292;2022-08-07T04:24:58;15.10;99.90
37844;DHT22;23930;57.632;18.292;2022-08-07T04:27:29;15.20;99.90
37844;DHT22;23930;57.632;18.292;2022-08-07T04:30:08;15.20;99.90
37844;DHT22;23930;57.632;18.292;2022-08-07T04:32:59;15.20;99.90
37844;DHT22;23930;57.632;18.292;2022-08-07T04:35:37;15.20;99.90
37844;DHT22;23930;57.632;18.292;2022-08-07T04:38:09;15.20;99.90
37844;DHT22;23930;57.632;18.292;2022-08-07T04:40:42;15.30;99.90
37844;DHT22;23930;57.632;18.292;2022-08-07T04:43:40;15.20;99.90
37844;DHT22;23930;57.632;18.292;2022-08-07T04:47:15;15.20;99.90
37844;DHT22;23930;57.632;18.292;2022-08-07T04:50:11;15.30;99.90
37844;DHT22;23930;57.632;18.292;2022-08-07T04:53:03;15.40;99.90
37844;DHT22;23930;57.632;18.292;2022-08-07T04:55:36;15.40;99.90
37844;DHT22;23930;57.632;18.292;2022-08-07T04:58:49;15.40;99.90
37844;DHT22;23930;57.632;18.292;2022-08-07T05:01:51;15.50;99.90
37844;DHT22;23930;57.632;18.292;2022-08-07T05:10:14;15.80;99.90
37844;DHT22;23930;57.632;18.292;2022-08-07T05:13:13;15.80;99.90
37844;DHT22;23930;57.632;18.292;2022-08-07T05:16:06;15.80;99.90
37844;DHT22;23930;57.632;18.292;2022-08-07T05:18:39;15.90;99.90
37844;DHT22;23930;57.632;18.292;2022-08-07T05:21:08;15.90;99.90
37844;DHT22;23930;57.632;18.292;2022-08-07T05:23:43;15.80;99.90
37844;DHT22;23930;57.632;18.292;2022-08-07T05:26:15;15.80;99.90
37844;DHT22;23930;57.632;18.292;2022-08-07T05:28:58;15.80;99.90
37844;DHT22;23930;57.632;18.292;2022-08-07T05:31:32;15.90;99.90
37844;DHT22;23930;57.632;18.292;2022-08-07T05:34:11;15.90;99.90
37844;DHT22;23930;57.632;18.292;2022-08-07T05:36:46;15.90;99.90
37844;DHT22;23930;57.632;18.292;2022-08-07T05:39:25;15.90;99.90
37844;DHT22;23930;57.632;18.292;2022-08-07T05:42:13;15.90;99.90
37844;DHT22;23930;57.632;18.292;2022-08-07T05:45:00;15.90;99.90
37844;DHT22;23930;57.632;18.292;2022-08-07T05:47:41;16.00;99.90
37844;DHT22;23930;57.632;18.292;2022-08-07T05:50:35;16.10;99.90
37844;DHT22;23930;57.632;18.292;2022-08-07T05:53:10;16.10;99.90
37844;DHT22;23930;57.632;18.292;2022-08-07T05:55:57;16.10;99.90
37844;DHT22;23930;57.632;18.292;2022-08-07T05:58:29;16.10;99.90
37844;DHT22;23930;57.632;18.292;2022-08-07T06:01:04;16.20;99.90
37844;DHT22;23930;57.632;18.292;2022-08-07T06:03:42;16.10;99.90
37844;DHT22;23930;57.632;18.292;2022-08-07T06:06:34;16.10;99.90
37844;DHT22;23930;57.632;18.292;2022-08-07T06:09:05;16.20;99.90
37844;DHT22;23930;57.632;18.292;2022-08-07T06:11:37;16.20;99.90
37844;DHT22;23930;57.632;18.292;2022-08-07T06:14:04;16.30;99.90
37844;DHT22;23930;57.632;18.292;2022-08-07T06:16:47;16.40;99.90
37844;DHT22;23930;57.632;18.292;2022-08-07T06:19:23;16.40;99.90
37844;DHT22;23930;57.632;18.292;2022-08-07T06:22:12;16.40;99.90
37844;DHT22;23930;57.632;18.292;2022-08-07T06:24:57;16.40;99.90
37844;DHT22;23930;57.632;18.292;2022-08-07T06:27:28;16.30;99.90
37844;DHT22;23930;57.632;18.292;2022-08-07T06:30:15;16.30;99.90
37844;DHT22;23930;57.632;18.292;2022-08-07T06:33:05;16.30;99.90
37844;DHT22;23930;57.632;18.292;2022-08-07T06:35:43;16.30;99.90
37844;DHT22;23930;57.632;18.292;2022-08-07T06:38:30;16.30;99.90
37844;DHT22;23930;57.632;18.292;2022-08-07T06:40:58;16.20;99.90
37844;DHT22;23930;57.632;18.292;2022-08-07T06:43:28;16.20;99.90
37844;DHT22;23930;57.632;18.292;2022-08-07T06:46:13;16.30;99.90
37844;DHT22;23930;57.632;18.292;2022-08-07T06:48:56;16.40;99.90
37844;DHT22;23930;57.632;18.292;2022-08-07T06:51:28;16.40;99.90
37844;DHT22;23930;57.632;18.292;2022-08-07T06:54:04;16.50;99.90
37844;DHT22;23930;57.632;18.292;2022-08-07T06:56:56;16.50;99.90
37844;DHT22;23930;57.632;18.292;2022-08-07T06:59:35;16.50;99.90
37844;DHT22;23930;57.632;18.292;2022-08-07T07:02:24;16.50;99.90
37844;DHT22;23930;57.632;18.292;2022-08-07T07:05:12;16.50;99.90
37844;DHT22;23930;57.632;18.292;2022-08-07T07:07:59;16.50;99.90
37844;DHT22;23930;57.632;18.292;2022-08-07T07:10:33;16.40;99.90
37844;DHT22;23930;57.632;18.292;2022-08-07T07:13:23;16.40;99.90
37844;DHT22;23930;57.632;18.292;2022-08-07T07:16:17;16.30;99.90
37844;DHT22;23930;57.632;18.292;2022-08-07T07:18:50;16.30;99.90
37844;DHT22;23930;57.632;18.292;2022-08-07T07:21:23;16.40;99.90
37844;DHT22;23930;57.632;18.292;2022-08-07T07:24:06;16.40;99.90
37844;DHT22;23930;57.632;18.292;2022-08-07T07:26:40;16.50;99.90
37844;DHT22;23930;57.632;18.292;2022-08-07T07:29:20;16.50;99.90
37844;DHT22;23930;57.632;18.292;2022-08-07T07:32:11;16.50;99.90
37844;DHT22;23930;57.632;18.292;2022-08-07T07:34:44;16.40;99.90
37844;DHT22;23930;57.632;18.292;2022-08-07T07:37:15;16.30;99.90
37844;DHT22;23930;57.632;18.292;2022-08-07T07:40:05;16.30;99.90
37844;DHT22;23930;57.632;18.292;2022-08-07T07:42:45;16.30;99.90
37844;DHT22;23930;57.632;18.292;2022-08-07T07:45:22;16.30;99.90
37844;DHT22;23930;57.632;18.292;2022-08-07T07:48:15;16.50;99.90
37844;DHT22;23930;57.632;18.292;2022-08-07T07:51:02;16.50;99.90
37844;DHT22;23930;57.632;18.292;2022-08-07T07:53:41;16.50;99.90
37844;DHT22;23930;57.632;18.292;2022-08-07T07:56:19;16.60;99.90
37844;DHT22;23930;57.632;18.292;2022-08-07T07:59:02;16.70;99.90
37844;DHT22;23930;57.632;18.292;2022-08-07T08:01:33;16.80;99.90
37844;DHT22;23930;57.632;18.292;2022-08-07T08:04:20;16.80;99.90
37844;DHT22;23930;57.632;18.292;2022-08-07T08:06:52;16.90;99.90
37844;DHT22;23930;57.632;18.292;2022-08-07T08:09:23;16.80;99.90
37844;DHT22;23930;57.632;18.292;2022-08-07T08:11:56;16.80;99.90
37844;DHT22;23930;57.632;18.292;2022-08-07T08:14:34;16.80;99.90
37844;DHT22;23930;57.632;18.292;2022-08-07T08:17:04;16.80;99.90
37844;DHT22;23930;57.632;18.292;2022-08-07T08:19:58;16.80;99.90
37844;DHT22;23930;57.632;18.292;2022-08-07T08:22:47;17.00;99.90
37844;DHT22;23930;57.632;18.292;2022-08-07T08:25:38;17.00;99.90
37844;DHT22;23930;57.632;18.292;2022-08-07T08:28:31;16.90;99.90
37844;DHT22;23930;57.632;18.292;2022-08-07T08:31:08;17.00;99.90
37844;DHT22;23930;57.632;18.292;2022-08-07T08:33:42;17.00;99.90
37844;DHT22;23930;57.632;18.292;2022-08-07T08:36:17;17.00;99.90
37844;DHT22;23930;57.632;18.292;2022-08-07T08:38:56;17.00;99.90
37844;DHT22;23930;57.632;18.292;2022-08-07T08:41:58;17.10;99.90
37844;DHT22;23930;57.632;18.292;2022-08-07T08:44:47;17.10;99.90
37844;DHT22;23930;57.632;18.292;2022-08-07T08:47:26;17.20;99.90
37844;DHT22;23930;57.632;18.292;2022-08-07T08:50:10;17.20;99.90
37844;DHT22;23930;57.632;18.292;2022-08-07T08:53:04;17.20;99.90
37844;DHT22;23930;57.632;18.292;2022-08-07T09:06:57;17.60;99.90
37844;DHT22;23930;57.632;18.292;2022-08-07T09:28:01;17.30;99.90
37844;DHT22;23930;57.632;18.292;2022-08-07T09:36:39;17.50;99.90
37844;DHT22;23930;57.632;18.292;2022-08-07T09:39:32;17.50;99.90
37844;DHT22;23930;57.632;18.292;2022-08-07T09:45:17;17.50;99.90
37844;DHT22;23930;57.632;18.292;2022-08-07T09:53:20;17.90;99.90
37844;DHT22;23930;57.632;18.292;2022-08-07T10:10:19;18.30;99.90
37844;DHT22;23930;57.632;18.292;2022-08-07T10:16:10;18.10;99.90
37844;DHT22;23930;57.632;18.292;2022-08-07T10:28:06;17.80;99.90
37844;DHT22;23930;57.632;18.292;2022-08-07T10:31:01;17.90;99.90
37844;DHT22;23930;57.632;18.292;2022-08-07T10:51:10;18.40;99.90
37844;DHT22;23930;57.632;18.292;2022-08-07T11:05:31;18.60;99.90
37844;DHT22;23930;57.632;18.292;2022-08-07T11:11:24;18.50;99.90
37844;DHT22;23930;57.632;18.292;2022-08-07T11:14:01;18.70;99.90
37844;DHT22;23930;57.632;18.292;2022-08-07T11:16:57;19.00;99.90
37844;DHT22;23930;57.632;18.292;2022-08-07T11:19:51;19.10;99.90
37844;DHT22;23930;57.632;18.292;2022-08-07T11:25:25;19.10;99.90
37844;DHT22;23930;57.632;18.292;2022-08-07T11:28:22;19.30;99.90
37844;DHT22;23930;57.632;18.292;2022-08-07T11:31:06;19.40;99.90
37844;DHT22;23930;57.632;18.292;2022-08-07T11:33:53;19.40;99.90
37844;DHT22;23930;57.632;18.292;2022-08-07T11:42:59;18.90;99.90
37844;DHT22;23930;57.632;18.292;2022-08-07T11:45:39;19.10;99.90
37844;DHT22;23930;57.632;18.292;2022-08-07T11:53:56;19.00;99.90
37844;DHT22;23930;57.632;18.292;2022-08-07T11:59:35;18.70;99.90
37844;DHT22;23930;57.632;18.292;2022-08-07T12:05:29;18.90;99.90
37844;DHT22;23930;57.632;18.292;2022-08-07T12:08:31;19.10;99.90
37844;DHT22;23930;57.632;18.292;2022-08-07T12:11:20;19.20;99.90
37844;DHT22;23930;57.632;18.292;2022-08-07T12:14:12;19.30;99.90
37844;DHT22;23930;57.632;18.292;2022-08-07T12:17:00;19.10;99.90
37844;DHT22;23930;57.632;18.292;2022-08-07T12:19:44;19.40;99.90
37844;DHT22;23930;57.632;18.292;2022-08-07T12:25:47;19.70;99.90
37844;DHT22;23930;57.632;18.292;2022-08-07T12:28:47;19.70;99.90
37844;DHT22;23930;57.632;18.292;2022-08-07T12:31:48;19.70;99.90
37844;DHT22;23930;57.632;18.292;2022-08-07T12:34:32;19.40;99.90
37844;DHT22;23930;57.632;18.292;2022-08-07T12:37:01;19.60;99.90
37844;DHT22;23930;57.632;18.292;2022-08-07T12:39:44;19.70;99.90
37844;DHT22;23930;57.632;18.292;2022-08-07T12:42:21;20.00;99.90
37844;DHT22;23930;57.632;18.292;2022-08-07T12:44:57;19.90;99.90
37844;DHT22;23930;57.632;18.292;2022-08-07T12:48:10;19.90;99.90
37844;DHT22;23930;57.632;18.292;2022-08-07T12:51:08;20.10;99.90
37844;DHT22;23930;57.632;18.292;2022-08-07T12:53:55;20.30;99.90
37844;DHT22;23930;57.632;18.292;2022-08-07T12:56:45;20.20;99.90
37844;DHT22;23930;57.632;18.292;2022-08-07T12:59:24;20.10;99.90
37844;DHT22;23930;57.632;18.292;2022-08-07T13:02:49;20.10;99.90
37844;DHT22;23930;57.632;18.292;2022-08-07T13:08:47;20.70;99.90
37844;DHT22;23930;57.632;18.292;2022-08-07T13:25:02;20.80;99.90
37844;DHT22;23930;57.632;18.292;2022-08-07T13:27:47;21.00;99.90
37844;DHT22;23930;57.632;18.292;2022-08-07T13:30:37;21.20;99.90
37844;DHT22;23930;57.632;18.292;2022-08-07T13:33:28;21.10;99.70
37844;DHT22;23930;57.632;18.292;2022-08-07T13:36:29;20.80;99.40
37844;DHT22;23930;57.632;18.292;2022-08-07T13:39:42;20.90;99.90
37844;DHT22;23930;57.632;18.292;2022-08-07T13:42:32;20.90;99.70
37844;DHT22;23930;57.632;18.292;2022-08-07T13:45:05;21.10;99.70
37844;DHT22;23930;57.632;18.292;2022-08-07T13:47:55;20.90;99.50
37844;DHT22;23930;57.632;18.292;2022-08-07T13:50:38;20.90;99.90
37844;DHT22;23930;57.632;18.292;2022-08-07T13:53:37;20.90;99.90
37844;DHT22;23930;57.632;18.292;2022-08-07T13:56:25;21.00;99.90
37844;DHT22;23930;57.632;18.292;2022-08-07T13:59:23;20.90;99.90
37844;DHT22;23930;57.632;18.292;2022-08-07T14:01:57;20.80;99.90
37844;DHT22;23930;57.632;18.292;2022-08-07T14:04:49;20.90;99.90
37844;DHT22;23930;57.632;18.292;2022-08-07T14:07:31;20.80;99.90
37844;DHT22;23930;57.632;18.292;2022-08-07T14:10:00;21.00;99.20
37844;DHT22;23930;57.632;18.292;2022-08-07T14:12:49;21.10;99.30
37844;DHT22;23930;57.632;18.292;2022-08-07T14:15:42;21.30;99.60
37844;DHT22;23930;57.632;18.292;2022-08-07T14:18:37;21.60;98.50
37844;DHT22;23930;57.632;18.292;2022-08-07T14:21:24;21.60;98.30
37844;DHT22;23930;57.632;18.292;2022-08-07T14:24:34;21.80;98.50
37844;DHT22;23930;57.632;18.292;2022-08-07T14:27:04;22.00;97.20
37844;DHT22;23930;57.632;18.292;2022-08-07T14:29:55;22.00;98.50
37844;DHT22;23930;57.632;18.292;2022-08-07T14:32:42;21.90;97.70
37844;DHT22;23930;57.632;18.292;2022-08-07T14:35:20;21.70;97.60
37844;DHT22;23930;57.632;18.292;2022-08-07T14:38:08;21.20;97.70
37844;DHT22;23930;57.632;18.292;2022-08-07T14:41:10;21.00;97.20
37844;DHT22;23930;57.632;18.292;2022-08-07T14:43:42;21.20;98.40
37844;DHT22;23930;57.632;18.292;2022-08-07T14:46:31;21.60;96.60
37844;DHT22;23930;57.632;18.292;2022-08-07T14:49:00;22.10;97.50
37844;DHT22;23930;57.632;18.292;2022-08-07T14:51:48;22.40;96.40
37844;DHT22;23930;57.632;18.292;2022-08-07T14:54:39;22.50;95.60
37844;DHT22;23930;57.632;18.292;2022-08-07T14:57:14;22.60;94.90
37844;DHT22;23930;57.632;18.292;2022-08-07T15:00:02;22.70;95.90
37844;DHT22;23930;57.632;18.292;2022-08-07T15:02:33;22.70;95.60
37844;DHT22;23930;57.632;18.292;2022-08-07T15:05:05;22.70;95.90
37844;DHT22;23930;57.632;18.292;2022-08-07T15:07:47;22.60;95.70
37844;DHT22;23930;57.632;18.292;2022-08-07T15:10:20;22.50;94.60
37844;DHT22;23930;57.632;18.292;2022-08-07T15:13:09;22.30;95.50
37844;DHT22;23930;57.632;18.292;2022-08-07T15:16:00;22.40;96.60
37844;DHT22;23930;57.632;18.292;2022-08-07T15:18:47;22.50;96.90
37844;DHT22;23930;57.632;18.292;2022-08-07T15:21:26;22.50;97.30
37844;DHT22;23930;57.632;18.292;2022-08-07T15:24:20;22.60;97.10
37844;DHT22;23930;57.632;18.292;2022-08-07T15:27:16;22.60;97.20
37844;DHT22;23930;57.632;18.292;2022-08-07T15:29:50;22.50;97.00
37844;DHT22;23930;57.632;18.292;2022-08-07T15:32:46;22.30;97.10
37844;DHT22;23930;57.632;18.292;2022-08-07T15:35:27;22.50;96.90
37844;DHT22;23930;57.632;18.292;2022-08-07T15:38:16;22.80;95.80
37844;DHT22;23930;57.632;18.292;2022-08-07T15:41:12;22.80;96.30
37844;DHT22;23930;57.632;18.292;2022-08-07T15:44:06;22.80;96.30
37844;DHT22;23930;57.632;18.292;2022-08-07T15:46:36;23.00;96.30
37844;DHT22;23930;57.632;18.292;2022-08-07T15:49:24;22.90;95.50
37844;DHT22;23930;57.632;18.292;2022-08-07T15:52:12;22.50;94.80
37844;DHT22;23930;57.632;18.292;2022-08-07T15:54:46;22.10;94.30
37844;DHT22;23930;57.632;18.292;2022-08-07T15:57:19;21.80;95.40
37844;DHT22;23930;57.632;18.292;2022-08-07T16:00:07;21.40;96.20
37844;DHT22;23930;57.632;18.292;2022-08-07T16:02:56;21.10;96.50
37844;DHT22;23930;57.632;18.292;2022-08-07T16:05:25;21.00;96.80
37844;DHT22;23930;57.632;18.292;2022-08-07T16:08:04;20.80;96.80
37844;DHT22;23930;57.632;18.292;2022-08-07T16:11:23;20.70;97.10
37844;DHT22;23930;57.632;18.292;2022-08-07T16:14:00;20.70;97.70
37844;DHT22;23930;57.632;18.292;2022-08-07T16:16:39;20.70;97.50
37844;DHT22;23930;57.632;18.292;2022-08-07T16:34:46;20.00;99.20
37844;DHT22;23930;57.632;18.292;2022-08-07T16:54:54;19.50;99.20
37844;DHT22;23930;57.632;18.292;2022-08-07T17:00:18;19.40;98.90
37844;DHT22;23930;57.632;18.292;2022-08-07T17:03:18;19.40;98.80
37844;DHT22;23930;57.632;18.292;2022-08-07T17:09:06;19.30;99.00
37844;DHT22;23930;57.632;18.292;2022-08-07T17:20:35;19.10;99.40
37844;DHT22;23930;57.632;18.292;2022-08-07T17:31:46;19.10;99.50
37844;DHT22;23930;57.632;18.292;2022-08-07T17:34:39;19.00;98.90
37844;DHT22;23930;57.632;18.292;2022-08-07T17:38:01;19.00;99.20
37844;DHT22;23930;57.632;18.292;2022-08-07T17:43:29;18.80;99.90
37844;DHT22;23930;57.632;18.292;2022-08-07T17:52:12;18.50;99.90
37844;DHT22;23930;57.632;18.292;2022-08-07T17:54:46;18.40;99.90
37844;DHT22;23930;57.632;18.292;2022-08-07T17:57:45;18.40;99.90
37844;DHT22;23930;57.632;18.292;2022-08-07T18:00:29;18.40;99.90
37844;DHT22;23930;57.632;18.292;2022-08-07T18:06:05;18.30;99.90
37844;DHT22;23930;57.632;18.292;2022-08-07T18:08:48;18.30;99.90
37844;DHT22;23930;57.632;18.292;2022-08-07T18:11:44;18.30;99.90
37844;DHT22;23930;57.632;18.292;2022-08-07T18:14:42;18.30;99.90
37844;DHT22;23930;57.632;18.292;2022-08-07T18:20:26;18.20;99.90
37844;DHT22;23930;57.632;18.292;2022-08-07T18:23:24;18.10;99.90
37844;DHT22;23930;57.632;18.292;2022-08-07T18:26:18;18.10;99.90
37844;DHT22;23930;57.632;18.292;2022-08-07T18:31:48;18.00;99.90
37844;DHT22;23930;57.632;18.292;2022-08-07T18:37:18;17.90;99.90
37844;DHT22;23930;57.632;18.292;2022-08-07T18:46:26;17.80;99.90
37844;DHT22;23930;57.632;18.292;2022-08-07T18:49:18;17.80;99.90
37844;DHT22;23930;57.632;18.292;2022-08-07T18:52:50;17.80;99.90
37844;DHT22;23930;57.632;18.292;2022-08-07T19:01:32;17.70;99.90
37844;DHT22;23930;57.632;18.292;2022-08-07T19:04:42;17.70;99.90
37844;DHT22;23930;57.632;18.292;2022-08-07T19:07:43;17.70;99.90
37844;DHT22;23930;57.632;18.292;2022-08-07T19:10:38;17.70;99.90
37844;DHT22;23930;57.632;18.292;2022-08-07T19:22:20;17.70;99.90
37844;DHT22;23930;57.632;18.292;2022-08-07T19:24:57;17.60;99.90
37844;DHT22;23930;57.632;18.292;2022-08-07T19:27:34;17.60;99.90
37844;DHT22;23930;57.632;18.292;2022-08-07T19:30:24;17.60;99.90
37844;DHT22;23930;57.632;18.292;2022-08-07T19:33:18;17.60;99.90
37844;DHT22;23930;57.632;18.292;2022-08-07T19:36:02;17.60;99.90
37844;DHT22;23930;57.632;18.292;2022-08-07T19:38:32;17.60;99.90
37844;DHT22;23930;57.632;18.292;2022-08-07T19:41:01;17.50;99.90
37844;DHT22;23930;57.632;18.292;2022-08-07T19:43:30;17.50;99.90
37844;DHT22;23930;57.632;18.292;2022-08-07T19:46:21;17.50;99.90
37844;DHT22;23930;57.632;18.292;2022-08-07T19:49:05;17.50;99.90
37844;DHT22;23930;57.632;18.292;2022-08-07T19:51:34;17.50;99.90
37844;DHT22;23930;57.632;18.292;2022-08-07T19:54:23;17.50;99.90
37844;DHT22;23930;57.632;18.292;2022-08-07T19:57:14;17.50;99.90
37844;DHT22;23930;57.632;18.292;2022-08-07T20:00:07;17.50;99.90
37844;DHT22;23930;57.632;18.292;2022-08-07T20:02:43;17.60;99.90
37844;DHT22;23930;57.632;18.292;2022-08-07T20:05:23;17.60;99.90
37844;DHT22;23930;57.632;18.292;2022-08-07T20:07:59;17.50;99.90
37844;DHT22;23930;57.632;18.292;2022-08-07T20:10:33;17.50;99.90
37844;DHT22;23930;57.632;18.292;2022-08-07T20:13:37;17.50;99.90
37844;DHT22;23930;57.632;18.292;2022-08-07T20:16:15;17.50;99.90
37844;DHT22;23930;57.632;18.292;2022-08-07T20:19:03;17.50;99.90
37844;DHT22;23930;57.632;18.292;2022-08-07T20:21:32;17.50;99.90
37844;DHT22;23930;57.632;18.292;2022-08-07T20:24:22;17.50;99.90
37844;DHT22;23930;57.632;18.292;2022-08-07T20:26:57;17.50;99.90
37844;DHT22;23930;57.632;18.292;2022-08-07T20:29:30;17.50;99.90
37844;DHT22;23930;57.632;18.292;2022-08-07T20:32:20;17.50;99.90
37844;DHT22;23930;57.632;18.292;2022-08-07T20:34:55;17.40;99.90
37844;DHT22;23930;57.632;18.292;2022-08-07T20:37:27;17.50;99.90
37844;DHT22;23930;57.632;18.292;2022-08-07T20:40:00;17.40;99.90
37844;DHT22;23930;57.632;18.292;2022-08-07T20:42:51;17.50;99.90
37844;DHT22;23930;57.632;18.292;2022-08-07T20:45:23;17.40;99.90
37844;DHT22;23930;57.632;18.292;2022-08-07T20:48:11;17.40;99.90
37844;DHT22;23930;57.632;18.292;2022-08-07T20:50:58;17.40;99.90
37844;DHT22;23930;57.632;18.292;2022-08-07T20:53:26;17.30;99.90
37844;DHT22;23930;57.632;18.292;2022-08-07T20:56:14;17.30;99.90